createdAt,value
2019-03-01T07:29:08.773Z,17.07
2019-03-01T07:31:37.678Z,15.57
2019-03-01T07:34:06.813Z,17.13
2019-03-01T07:36:35.848Z,15.13
2019-03-01T07:39:08.513Z,17.43
2019-03-01T07:41:37.647Z,16.03
2019-03-01T07:44:09.976Z,15.73
2019-03-01T07:46:39.356Z,14.97
2019-03-01T07:49:08.651Z,20.10
2019-03-01T07:51:38.873Z,20.13
2019-03-01T07:54:07.972Z,19.73
2019-03-01T07:56:40.689Z,21.20
2019-03-01T07:59:09.764Z,16.20
2019-03-01T08:01:39.151Z,15.43
2019-03-01T08:04:07.969Z,15.87
2019-03-01T08:06:38.774Z,18.10
2019-03-01T08:09:14.279Z,16.83
2019-03-01T08:11:44.719Z,15.30
2019-03-01T08:14:13.877Z,15.77
2019-03-01T08:16:42.890Z,17.13
2019-03-01T08:19:16.167Z,17.73
2019-03-01T08:21:45.910Z,18.43
2019-03-01T08:24:14.935Z,16.07
2019-03-01T08:26:44.116Z,18.87
2019-03-01T08:29:13.418Z,18.37
2019-03-01T08:31:43.346Z,17.60
2019-03-01T08:34:14.460Z,18.10
2019-03-01T08:36:44.506Z,18.13
2019-03-01T08:39:14.621Z,17.00
2019-03-01T08:41:43.694Z,18.97
2019-03-01T08:44:12.956Z,19.17
2019-03-01T08:46:45.664Z,18.27
2019-03-01T08:49:13.757Z,16.83
2019-03-01T08:51:42.954Z,19.67
2019-03-01T08:54:11.985Z,20.83
2019-03-01T08:56:41.132Z,19.87
2019-03-01T08:59:14.036Z,18.23
2019-03-01T09:01:44.656Z,20.27
2019-03-01T09:04:18.102Z,19.50
2019-03-01T09:06:45.617Z,21.30
2019-03-01T09:09:17.666Z,20.87
2019-03-01T09:11:46.668Z,19.70
2019-03-01T09:14:18.119Z,20.03
2019-03-01T09:16:47.350Z,22.83
2019-03-01T09:19:16.510Z,19.73
2019-03-01T09:21:49.929Z,18.23
2019-03-01T09:24:16.601Z,17.00
2019-03-01T09:26:45.793Z,15.03
2019-03-01T09:29:18.452Z,15.63
2019-03-01T09:31:46.951Z,14.87
2019-03-01T09:34:16.422Z,15.00
2019-03-01T09:36:47.393Z,16.50
2019-03-01T09:39:18.013Z,17.03
2019-03-01T09:41:48.167Z,13.73
2019-03-01T09:44:17.370Z,14.30
2019-03-01T09:46:46.451Z,13.47
2019-03-01T09:49:15.613Z,13.93
2019-03-01T09:51:49.219Z,13.47
2019-03-01T09:54:15.497Z,13.43
2019-03-01T09:56:44.582Z,13.13
2019-03-01T09:59:15.044Z,14.07
2019-03-01T10:01:44.644Z,14.20
2019-03-01T10:04:14.468Z,13.77
2019-03-01T10:06:43.313Z,14.20
2019-03-01T10:09:12.600Z,12.40
2019-03-01T10:11:41.860Z,14.60
2019-03-01T10:14:11.116Z,13.63
2019-03-01T10:16:40.281Z,11.60
2019-03-01T10:19:09.608Z,13.27
2019-03-01T10:21:38.999Z,12.40
2019-03-01T10:24:08.129Z,13.67
2019-03-01T10:26:38.782Z,11.63
2019-03-01T10:29:08.232Z,11.63
2019-03-01T10:31:37.197Z,14.00
2019-03-01T10:34:06.477Z,12.20
2019-03-01T10:36:35.588Z,12.77
2019-03-01T10:39:05.559Z,13.03
2019-03-01T10:41:34.452Z,12.67
2019-03-01T10:44:03.177Z,12.97
2019-03-01T10:46:33.312Z,11.63
2019-03-01T10:49:02.393Z,14.07
2019-03-01T10:51:31.059Z,12.50
2019-03-01T10:53:59.798Z,12.60
2019-03-01T10:56:28.426Z,13.33
2019-03-01T10:58:58.462Z,13.60
2019-03-01T11:01:27.478Z,12.17
2019-03-01T11:03:56.074Z,13.23
2019-03-01T11:06:25.601Z,11.50
2019-03-01T11:08:54.171Z,11.23
2019-03-01T11:11:23.374Z,13.50
2019-03-01T11:13:52.362Z,14.30
2019-03-01T11:16:21.419Z,12.63
2019-03-01T11:18:50.415Z,13.63
2019-03-01T11:21:19.324Z,13.50
2019-03-01T11:23:48.161Z,14.87
2019-03-01T11:26:16.907Z,13.60
2019-03-01T11:28:45.650Z,13.20
2019-03-01T11:31:14.424Z,13.60
2019-03-01T11:33:43.040Z,13.23
2019-03-01T11:36:13.103Z,15.33
2019-03-01T11:38:43.880Z,14.57
2019-03-01T11:41:12.975Z,16.23
2019-03-01T11:43:41.892Z,15.27
2019-03-01T11:46:10.994Z,14.93
2019-03-01T11:48:39.858Z,14.10
2019-03-01T11:51:08.867Z,15.40
2019-03-01T11:53:37.639Z,14.43
2019-03-01T11:56:06.433Z,14.83
2019-03-01T11:58:35.128Z,14.97
2019-03-01T12:01:04.041Z,14.80
2019-03-01T12:03:33.199Z,14.83
2019-03-01T12:06:02.151Z,14.67
2019-03-01T12:08:31.092Z,14.77
2019-03-01T12:10:59.719Z,15.03
2019-03-01T12:13:28.749Z,14.13
2019-03-01T12:15:57.825Z,13.93
2019-03-01T12:18:26.964Z,14.13
2019-03-01T12:20:56.173Z,13.83
2019-03-01T12:23:25.059Z,12.87
2019-03-01T12:25:54.014Z,13.90
2019-03-01T12:28:23.095Z,13.43
2019-03-01T12:30:52.239Z,12.63
2019-03-01T12:33:21.336Z,12.73
2019-03-01T12:43:14.868Z,13.03
2019-03-01T12:45:45.910Z,11.87
2019-03-01T12:48:14.919Z,13.13
2019-03-01T12:50:44.083Z,12.63
2019-03-01T12:53:12.863Z,13.17
2019-03-01T12:55:41.911Z,16.37
2019-03-01T12:58:19.183Z,18.17
2019-03-01T13:00:41.328Z,16.90
2019-03-01T13:03:11.854Z,16.07
2019-03-01T13:05:40.747Z,14.43
2019-03-01T13:11:20.152Z,16.10
2019-03-01T13:13:49.254Z,14.90
2019-03-01T13:16:18.271Z,14.57
2019-03-01T13:18:47.775Z,15.17
2019-03-01T13:21:17.693Z,14.63
2019-03-01T13:23:46.646Z,12.67
2019-03-01T13:26:15.646Z,13.13
2019-03-01T13:28:47.086Z,13.73
2019-03-01T13:31:14.867Z,14.73
2019-03-01T13:33:44.224Z,13.57
2019-03-01T13:36:13.382Z,11.70
2019-03-01T13:38:42.596Z,12.77
